Time;durP1;ratioP1;P1;durP2;ratioP2;P2;SDS_P1;SDS_P2;PMS_P1;PMS_P2;Temp;Humidity;BMP_temperature;BMP_pressure;BME280_temperature;BME280_humidity;BME280_pressure;Samples;Min_cycle;Max_cycle;Signal;HPM_P1;HPM_P2
2021/10/01 00:01:42;;;;;;;;;;;;;;;11.62;76.51;101838.69;5053404;28;20438;-49
2021/10/01 00:04:09;;;;;;;;;;;;;;;11.62;75.74;101836.91;5037767;28;19925;-49
2021/10/01 00:06:36;;;;;;;;;;;;;;;11.58;76.03;101826.63;5051183;28;19975;-54
2021/10/01 00:09:02;;;;;;;;;;;;;;;11.57;76.42;101833.66;5052585;28;19928;-46
2021/10/01 00:11:29;;;;;;;;;;;;;;;11.53;76.96;101820.75;5051356;28;19929;-55
2021/10/01 00:13:56;;;;;;;;;;;;;;;11.49;77.00;101827.97;5050901;28;20440;-54
2021/10/01 00:16:22;;;;;;;;;;;;;;;11.47;76.55;101821.94;5052847;28;19952;-55
2021/10/01 00:18:49;;;;;;;;;;;;;;;11.42;76.42;101814.25;5051734;28;20023;-53
2021/10/01 00:21:15;;;;;;;;;;;;;;;11.38;77.24;101815.34;5052549;28;19987;-54
2021/10/01 00:23:42;;;;;;;;;;;;;;;11.42;77.07;101816.91;5052574;28;19971;-54
2021/10/01 00:26:09;;;;;;;;;;;;;;;11.39;77.56;101819.69;5051690;28;19925;-50
2021/10/01 00:28:35;;;;;;;;;;;;;;;11.34;77.53;101811.19;5051286;28;19932;-46
2021/10/01 00:31:02;;;;;;;;;;;;;;;11.36;77.55;101808.47;5054762;28;19929;-53
2021/10/01 00:33:29;;;;;;;;;;;;;;;11.38;77.82;101804.81;5052177;28;19924;-55
2021/10/01 00:35:59;;;;;;;;;;;;;;;11.38;77.55;101803.97;5052494;28;19925;-53
2021/10/01 00:38:27;;;;;;;;;;;;;;;11.36;77.41;101800.56;5052506;28;19978;-54
2021/10/01 00:40:53;;;;;;;;;;;;;;;11.38;77.84;101801.34;5054574;28;19963;-55
2021/10/01 00:43:20;;;;;;;;;;;;;;;11.35;77.60;101801.53;5053395;28;19928;-55
2021/10/01 00:45:47;;;;;;;;;;;;;;;11.38;77.91;101799.56;5053522;28;19983;-55
2021/10/01 00:48:13;;;;;;;;;;;;;;;11.41;77.35;101788.88;5054607;28;19979;-55
2021/10/01 00:50:40;;;;;;;;;;;;;;;11.45;77.22;101789.53;5053500;28;19925;-54
2021/10/01 00:53:07;;;;;;;;;;;;;;;11.43;77.60;101789.63;5053454;28;19968;-54
2021/10/01 00:55:34;;;;;;;;;;;;;;;11.39;77.23;101787.25;5037195;28;19978;-54
2021/10/01 00:58:01;;;;;;;;;;;;;;;11.47;77.12;101779.78;5049717;28;20350;-55
2021/10/01 01:00:27;;;;;;;;;;;;;;;11.38;77.75;101780.28;5050783;28;19974;-53
2021/10/01 01:02:56;;;;;;;;;;;;;;;11.35;77.25;101783.09;5052158;28;20020;-54
2021/10/01 01:05:25;;;;;;;;;;;;;;;11.43;77.25;101771.19;5050376;28;19929;-54
2021/10/01 01:07:52;;;;;;;;;;;;;;;11.38;77.67;101769.75;5033668;28;19995;-54
2021/10/01 01:10:18;;;;;;;;;;;;;;;11.40;77.54;101766.09;5051462;28;19932;-53
2021/10/01 01:12:50;;;;;;;;;;;;;;;11.38;77.06;101761.84;5049679;28;19931;-55
2021/10/01 01:15:18;;;;;;;;;;;;;;;11.35;77.73;101759.38;5033547;28;19925;-55
2021/10/01 01:17:48;;;;;;;;;;;;;;;11.35;76.86;101754.94;5051326;28;19932;-57
2021/10/01 01:20:34;;;;;;;;;;;;;;;11.42;77.00;101753.69;5049723;28;19929;-56
2021/10/01 01:23:20;;;;;;;;;;;;;;;11.37;77.19;101753.09;5049202;28;19928;-55
2021/10/01 01:26:05;;;;;;;;;;;;;;;11.30;77.09;101760.47;5050973;28;20015;-46
2021/10/01 01:28:40;;;;;;;;;;;;;;;11.21;77.34;101753.06;5049851;28;19954;-47
2021/10/01 01:31:18;;;;;;;;;;;;;;;11.23;77.76;101761.72;5051911;28;20284;-48
2021/10/01 01:33:45;;;;;;;;;;;;;;;11.23;77.74;101752.97;5054063;28;19980;-50
2021/10/01 01:36:13;;;;;;;;;;;;;;;11.20;77.55;101754.00;5052570;28;20299;-48
2021/10/01 01:38:42;;;;;;;;;;;;;;;11.14;77.70;101749.06;5052923;28;19932;-47
2021/10/01 01:41:08;;;;;;;;;;;;;;;11.09;78.45;101743.19;5048807;28;20426;-47
2021/10/01 01:43:36;;;;;;;;;;;;;;;11.13;78.66;101739.47;5049055;28;19979;-45
2021/10/01 01:46:03;;;;;;;;;;;;;;;11.12;78.50;101740.38;5049843;28;20027;-46
2021/10/01 01:48:30;;;;;;;;;;;;;;;11.17;77.99;101738.38;5049597;28;19936;-48
2021/10/01 01:50:57;;;;;;;;;;;;;;;11.16;77.99;101737.50;5050987;28;19925;-47
2021/10/01 01:53:24;;;;;;;;;;;;;;;11.12;78.48;101737.75;5051937;28;19928;-48
2021/10/01 01:55:51;;;;;;;;;;;;;;;11.26;77.22;101735.25;5053462;28;19924;-46
2021/10/01 01:58:17;;;;;;;;;;;;;;;11.10;78.76;101732.56;5053514;28;19985;-54
2021/10/01 02:00:45;;;;;;;;;;;;;;;11.15;78.24;101741.09;5033087;28;19979;-55
2021/10/01 02:03:11;;;;;;;;;;;;;;;11.22;77.95;101733.72;5049422;28;20425;-55
2021/10/01 02:05:38;;;;;;;;;;;;;;;11.14;77.95;101734.13;5049433;28;19925;-56
2021/10/01 02:08:05;;;;;;;;;;;;;;;11.15;78.32;101727.06;5050482;28;20471;-53
2021/10/01 02:10:32;;;;;;;;;;;;;;;11.11;78.38;101726.38;5049226;28;19928;-55
2021/10/01 02:13:00;;;;;;;;;;;;;;;11.15;78.88;101721.78;5051873;28;19986;-55
2021/10/01 02:15:28;;;;;;;;;;;;;;;11.20;78.34;101709.22;5050409;28;20006;-55
2021/10/01 02:17:55;;;;;;;;;;;;;;;11.08;78.25;101705.47;5051536;28;19924;-53
2021/10/01 02:20:22;;;;;;;;;;;;;;;11.22;78.31;101703.88;5051792;28;19925;-55
2021/10/01 02:22:48;;;;;;;;;;;;;;;11.22;77.56;101694.22;5049169;28;19988;-54
2021/10/01 02:28:01;;;;;;;;;;;;;;;11.28;77.03;101699.13;5047106;28;19929;-54
2021/10/01 02:30:28;;;;;;;;;;;;;;;11.36;77.49;101695.22;5048572;28;20434;-52
2021/10/01 02:32:58;;;;;;;;;;;;;;;11.30;77.90;101697.28;5049004;28;19925;-54
2021/10/01 02:35:25;;;;;;;;;;;;;;;11.35;76.92;101696.19;5049070;28;19971;-54
2021/10/01 02:37:52;;;;;;;;;;;;;;;11.44;76.60;101693.03;5048600;28;19925;-53
2021/10/01 02:40:19;;;;;;;;;;;;;;;11.38;77.40;101685.47;5032301;28;20292;-55
2021/10/01 02:42:46;;;;;;;;;;;;;;;11.36;77.40;101685.56;5047342;28;19925;-52
2021/10/01 02:45:12;;;;;;;;;;;;;;;11.42;77.51;101687.00;5049641;28;19925;-54
2021/10/01 02:47:40;;;;;;;;;;;;;;;11.51;76.56;101681.22;5050201;28;19932;-53
2021/10/01 02:50:08;;;;;;;;;;;;;;;11.43;77.09;101673.72;5050142;28;20023;-53
2021/10/01 02:52:38;;;;;;;;;;;;;;;11.42;77.31;101668.56;5050575;28;19928;-54
2021/10/01 02:55:06;;;;;;;;;;;;;;;11.41;77.40;101669.47;5048925;28;19925;-54
2021/10/01 02:57:34;;;;;;;;;;;;;;;11.41;76.98;101666.84;5046593;28;19928;-55
2021/10/01 03:00:03;;;;;;;;;;;;;;;11.36;77.37;101658.34;5050043;28;19928;-55
2021/10/01 03:02:29;;;;;;;;;;;;;;;11.38;77.45;101662.59;5053617;28;19933;-55
2021/10/01 03:04:56;;;;;;;;;;;;;;;11.34;77.84;101653.16;5055685;28;20035;-53
2021/10/01 03:07:24;;;;;;;;;;;;;;;11.38;78.01;101649.44;5059099;28;19931;-56
2021/10/01 03:09:50;;;;;;;;;;;;;;;11.44;77.06;101648.25;5058076;28;20002;-55
2021/10/01 03:12:17;;;;;;;;;;;;;;;11.40;77.46;101644.06;5054962;28;19932;-55
2021/10/01 03:14:44;;;;;;;;;;;;;;;11.35;77.69;101640.88;5055805;28;19925;-56
2021/10/01 03:17:10;;;;;;;;;;;;;;;11.46;77.18;101643.75;5054661;28;20399;-55
2021/10/01 03:19:37;;;;;;;;;;;;;;;11.35;77.83;101644.34;5055330;28;19924;-56
2021/10/01 03:22:04;;;;;;;;;;;;;;;11.27;78.66;101644.75;5055593;28;19925;-54
2021/10/01 03:24:30;;;;;;;;;;;;;;;11.32;78.58;101634.81;5055769;28;19951;-53
2021/10/01 03:26:57;;;;;;;;;;;;;;;11.25;77.79;101630.84;5054640;28;19928;-54
2021/10/01 03:29:24;;;;;;;;;;;;;;;11.20;78.30;101630.25;5054375;28;20288;-54
2021/10/01 03:31:51;;;;;;;;;;;;;;;11.15;77.88;101632.28;5056625;28;19928;-46
2021/10/01 03:34:18;;;;;;;;;;;;;;;11.12;78.34;101627.19;5040907;28;19951;-45
2021/10/01 03:36:45;;;;;;;;;;;;;;;11.08;78.33;101628.28;5055353;28;19936;-46
2021/10/01 03:39:12;;;;;;;;;;;;;;;11.13;78.47;101624.47;5055854;28;20404;-45
2021/10/01 03:41:38;;;;;;;;;;;;;;;11.21;78.28;101631.09;5053552;28;19994;-44
2021/10/01 03:44:05;;;;;;;;;;;;;;;11.13;78.66;101626.25;5054850;28;19928;-46
2021/10/01 03:46:31;;;;;;;;;;;;;;;11.13;78.61;101628.91;5056525;28;19928;-47
2021/10/01 03:48:58;;;;;;;;;;;;;;;11.08;78.99;101615.13;5056309;28;20359;-44
2021/10/01 03:51:25;;;;;;;;;;;;;;;11.06;78.53;101609.13;5055699;28;19991;-47
2021/10/01 03:53:53;;;;;;;;;;;;;;;11.01;78.71;101604.09;5055832;28;19973;-43
2021/10/01 03:56:20;;;;;;;;;;;;;;;11.08;78.41;101600.16;5058748;28;19932;-46
2021/10/01 03:58:47;;;;;;;;;;;;;;;11.03;77.94;101596.09;5059376;28;19924;-47
2021/10/01 04:01:14;;;;;;;;;;;;;;;11.11;78.20;101594.75;5056047;28;19925;-45
2021/10/01 04:03:41;;;;;;;;;;;;;;;11.12;77.51;101591.16;5056241;28;19933;-45
2021/10/01 04:06:08;;;;;;;;;;;;;;;11.07;77.95;101584.47;5054975;28;19951;-46
2021/10/01 04:08:34;;;;;;;;;;;;;;;11.06;77.63;101591.53;5057036;28;19931;-54
2021/10/01 04:11:01;;;;;;;;;;;;;;;11.08;77.89;101584.38;5056276;28;19932;-53
2021/10/01 04:13:28;;;;;;;;;;;;;;;11.07;77.38;101576.56;5053128;28;19932;-54
2021/10/01 04:15:55;;;;;;;;;;;;;;;11.04;77.70;101572.31;5055309;28;20015;-54
2021/10/01 04:18:21;;;;;;;;;;;;;;;11.05;77.68;101570.56;5055465;28;19924;-54
2021/10/01 04:20:48;;;;;;;;;;;;;;;11.02;77.19;101566.31;5054148;28;19929;-54
2021/10/01 04:23:15;;;;;;;;;;;;;;;10.97;78.44;101563.91;5055408;28;19967;-44
2021/10/01 04:25:41;;;;;;;;;;;;;;;11.00;77.69;101565.53;5053674;28;20322;-45
2021/10/01 04:28:08;;;;;;;;;;;;;;;10.93;78.17;101558.91;5050852;28;20039;-46
2021/10/01 04:30:42;;;;;;;;;;;;;;;10.85;77.86;101556.69;5050901;28;19995;-48
2021/10/01 04:33:14;;;;;;;;;;;;;;;10.84;78.81;101555.03;5052328;28;19929;-46
2021/10/01 04:35:41;;;;;;;;;;;;;;;10.89;78.32;101557.38;5052760;28;19928;-45
2021/10/01 04:38:07;;;;;;;;;;;;;;;10.77;78.74;101557.13;5050818;28;19925;-45
2021/10/01 04:40:34;;;;;;;;;;;;;;;10.81;78.81;101557.78;5052288;28;19925;-45
2021/10/01 04:43:01;;;;;;;;;;;;;;;10.77;78.25;101556.25;5050171;28;19929;-55
2021/10/01 04:45:27;;;;;;;;;;;;;;;10.74;78.75;101556.44;5050860;28;19924;-55
2021/10/01 04:47:54;;;;;;;;;;;;;;;10.75;78.79;101555.53;5051040;28;20322;-54
2021/10/01 04:50:20;;;;;;;;;;;;;;;10.72;79.03;101555.69;5052022;28;19928;-54
2021/10/01 04:52:47;;;;;;;;;;;;;;;10.73;78.95;101552.09;5050325;28;19925;-53
2021/10/01 04:55:14;;;;;;;;;;;;;;;10.79;78.39;101549.16;5051873;28;20391;-53
2021/10/01 04:57:40;;;;;;;;;;;;;;;10.76;78.32;101549.34;5049965;28;20647;-45
2021/10/01 05:00:07;;;;;;;;;;;;;;;10.85;78.22;101540.91;5051766;28;19963;-48
2021/10/01 05:02:34;;;;;;;;;;;;;;;10.74;78.64;101545.91;5051543;28;19932;-47
2021/10/01 05:05:01;;;;;;;;;;;;;;;10.72;78.12;101524.97;5052099;28;19932;-44
2021/10/01 05:07:27;;;;;;;;;;;;;;;10.71;78.05;101538.19;5053516;28;20342;-47
2021/10/01 05:09:54;;;;;;;;;;;;;;;10.72;78.11;101534.66;5051978;28;19929;-43
2021/10/01 05:12:21;;;;;;;;;;;;;;;10.70;77.92;101532.06;5049118;28;19936;-47
2021/10/01 05:14:47;;;;;;;;;;;;;;;10.67;78.21;101534.03;5050745;28;19924;-43
2021/10/01 05:17:14;;;;;;;;;;;;;;;10.56;78.16;101526.72;5050886;28;20011;-45
2021/10/01 05:19:41;;;;;;;;;;;;;;;10.59;78.49;101529.19;5053037;28;19932;-47
2021/10/01 05:22:07;;;;;;;;;;;;;;;10.59;78.65;101532.69;5051993;28;19932;-46
2021/10/01 05:24:34;;;;;;;;;;;;;;;10.58;78.14;101538.88;5049849;28;19925;-51
2021/10/01 05:27:01;;;;;;;;;;;;;;;10.64;77.21;101538.53;5052318;28;19929;-56
2021/10/01 05:29:27;;;;;;;;;;;;;;;10.58;78.21;101533.63;5050354;28;19932;-55
2021/10/01 05:31:56;;;;;;;;;;;;;;;10.58;77.59;101536.25;5050918;28;20445;-55
2021/10/01 05:34:23;;;;;;;;;;;;;;;10.68;77.19;101527.84;5050496;28;19978;-53
2021/10/01 05:36:49;;;;;;;;;;;;;;;10.71;76.56;101519.78;5052859;28;20394;-55
2021/10/01 05:39:16;;;;;;;;;;;;;;;10.68;77.26;101531.31;5049351;28;19924;-55
2021/10/01 05:41:43;;;;;;;;;;;;;;;10.72;77.56;101524.97;5049775;28;19925;-54
2021/10/01 05:44:09;;;;;;;;;;;;;;;10.64;77.16;101521.91;5050148;28;19925;-54
2021/10/01 05:46:40;;;;;;;;;;;;;;;10.74;77.67;101528.34;5049243;28;19929;-54
2021/10/01 05:49:09;;;;;;;;;;;;;;;10.84;76.72;101520.81;5033554;28;19972;-55
2021/10/01 05:51:40;;;;;;;;;;;;;;;10.89;76.29;101510.84;5050219;28;19929;-55
2021/10/01 05:56:33;;;;;;;;;;;;;;;10.85;76.87;101514.59;5053741;28;19931;-54
2021/10/01 05:59:00;;;;;;;;;;;;;;;10.85;76.49;101522.47;5052282;28;19975;-54
2021/10/01 06:01:26;;;;;;;;;;;;;;;10.94;76.74;101523.78;5052156;28;19925;-55
2021/10/01 06:03:53;;;;;;;;;;;;;;;10.85;76.56;101519.84;5049596;28;19932;-55
2021/10/01 06:06:20;;;;;;;;;;;;;;;10.93;76.67;101528.16;5049802;28;19925;-54
2021/10/01 06:08:47;;;;;;;;;;;;;;;10.92;76.78;101531.75;5053253;28;19932;-55
2021/10/01 06:11:13;;;;;;;;;;;;;;;10.92;76.01;101537.03;5050473;28;19971;-54
2021/10/01 06:13:40;;;;;;;;;;;;;;;10.91;77.19;101537.94;5049427;28;19925;-51
2021/10/01 06:16:07;;;;;;;;;;;;;;;10.97;76.58;101536.75;5050653;28;19935;-53
2021/10/01 06:18:34;;;;;;;;;;;;;;;10.99;76.50;101529.63;5052211;28;19925;-54
2021/10/01 06:21:01;;;;;;;;;;;;;;;11.09;76.03;101527.34;5052883;28;20346;-53
2021/10/01 06:23:33;;;;;;;;;;;;;;;11.08;76.38;101520.38;5052928;28;20410;-47
2021/10/01 06:26:02;;;;;;;;;;;;;;;11.11;76.68;101510.53;5051856;28;19929;-43
2021/10/01 06:28:28;;;;;;;;;;;;;;;11.26;75.04;101518.47;5052700;28;19925;-45
2021/10/01 06:30:58;;;;;;;;;;;;;;;11.22;76.29;101520.44;5052831;28;20330;-47
2021/10/01 06:33:25;;;;;;;;;;;;;;;11.27;75.91;101525.44;5051487;28;19925;-46
2021/10/01 06:35:51;;;;;;;;;;;;;;;11.23;75.75;101529.19;5052543;28;19982;-46
2021/10/01 06:38:18;;;;;;;;;;;;;;;11.30;75.63;101530.50;5052356;28;19924;-43
2021/10/01 06:40:45;;;;;;;;;;;;;;;11.35;75.60;101535.53;5051289;28;19928;-46
2021/10/01 06:43:14;;;;;;;;;;;;;;;11.36;76.02;101540.72;5046702;28;19929;-44
2021/10/01 06:45:42;;;;;;;;;;;;;;;11.42;75.69;101531.59;5049352;28;20441;-45
2021/10/01 08:20:52;;;;;;;;;;;;;;;14.03;68.60;101502.84;5052037;28;19933;-46
2021/10/01 08:23:18;;;;;;;;;;;;;;;14.01;67.09;101507.38;5051212;28;20387;-46
2021/10/01 08:25:45;;;;;;;;;;;;;;;13.99;67.50;101509.31;5051935;28;19979;-45
2021/10/01 08:28:12;;;;;;;;;;;;;;;14.05;68.47;101510.66;5054341;28;19929;-47
2021/10/01 08:30:39;;;;;;;;;;;;;;;14.11;68.49;101510.25;5054598;28;19928;-44
2021/10/01 08:33:05;;;;;;;;;;;;;;;14.15;68.70;101502.94;5051768;28;19925;-46
2021/10/01 08:35:32;;;;;;;;;;;;;;;14.17;68.02;101501.03;5050230;28;20358;-46
2021/10/01 08:37:59;;;;;;;;;;;;;;;14.05;67.40;101508.03;5050978;28;20367;-47
2021/10/01 08:40:26;;;;;;;;;;;;;;;14.18;67.55;101506.22;5050100;28;19929;-53
2021/10/01 08:42:53;;;;;;;;;;;;;;;14.12;70.90;101508.44;5053221;28;20466;-55
2021/10/01 08:45:20;;;;;;;;;;;;;;;14.02;75.97;101508.25;5050706;28;19979;-54
2021/10/01 08:47:47;;;;;;;;;;;;;;;13.97;76.29;101502.44;5050023;28;19951;-55
2021/10/01 08:50:15;;;;;;;;;;;;;;;14.08;77.59;101497.22;5050165;28;19924;-56
2021/10/01 08:52:42;;;;;;;;;;;;;;;14.01;78.33;101496.81;5050816;28;20007;-55
2021/10/01 08:55:09;;;;;;;;;;;;;;;13.96;77.82;101488.38;5054184;28;19925;-56
2021/10/01 08:57:36;;;;;;;;;;;;;;;13.93;77.27;101471.84;5048598;28;19933;-55
2021/10/01 09:00:04;;;;;;;;;;;;;;;13.96;78.16;101483.06;5050200;28;19924;-43
2021/10/01 09:02:31;;;;;;;;;;;;;;;13.95;77.72;101475.25;5051542;28;19955;-45
2021/10/01 09:04:58;;;;;;;;;;;;;;;13.83;78.72;101477.78;5052804;28;20028;-49
2021/10/01 09:07:25;;;;;;;;;;;;;;;14.09;76.29;101479.56;5049488;28;20396;-45
2021/10/01 09:09:52;;;;;;;;;;;;;;;14.14;75.56;101464.25;5051326;28;19932;-45
2021/10/01 09:12:24;;;;;;;;;;;;;;;14.54;74.40;101462.22;5047733;28;20003;-46
2021/10/01 09:14:57;;;;;;;;;;;;;;;14.60;75.32;101463.59;5032949;28;19982;-47
2021/10/01 09:17:26;;;;;;;;;;;;;;;14.74;74.25;101456.47;5050505;28;19925;-45
2021/10/01 09:19:53;;;;;;;;;;;;;;;14.70;73.43;101467.28;5053162;28;19925;-49
2021/10/01 09:22:29;;;;;;;;;;;;;;;14.72;72.87;101463.69;5050324;28;19929;-46
2021/10/01 09:25:16;;;;;;;;;;;;;;;14.60;73.33;101460.09;5051119;28;19924;-47
2021/10/01 09:27:43;;;;;;;;;;;;;;;14.60;74.11;101466.25;5048162;28;19938;-46
2021/10/01 09:30:10;;;;;;;;;;;;;;;14.52;75.26;101458.84;5048204;28;20024;-44
2021/10/01 09:32:37;;;;;;;;;;;;;;;14.52;75.23;101458.00;5049471;28;19932;-45
2021/10/01 09:35:12;;;;;;;;;;;;;;;14.37;74.82;101457.31;5049416;28;19924;-45
2021/10/01 09:37:39;;;;;;;;;;;;;;;14.35;76.21;101460.03;5051498;28;19979;-46
2021/10/01 09:40:06;;;;;;;;;;;;;;;14.39;74.31;101454.56;5054428;28;19925;-45
2021/10/01 09:42:47;;;;;;;;;;;;;;;14.28;77.68;101453.50;5054162;28;19982;-46
2021/10/01 09:45:14;;;;;;;;;;;;;;;14.23;76.81;101446.84;5049182;28;19960;-46
2021/10/01 09:47:41;;;;;;;;;;;;;;;14.28;76.87;101456.16;5050290;28;19928;-44
2021/10/01 09:50:10;;;;;;;;;;;;;;;14.30;76.17;101456.91;5052585;28;19978;-53
2021/10/01 09:52:45;;;;;;;;;;;;;;;14.45;76.99;101452.31;5049505;28;20023;-45
2021/10/01 09:55:12;;;;;;;;;;;;;;;14.52;77.45;101458.00;5050060;28;19925;-54
2021/10/01 09:57:40;;;;;;;;;;;;;;;14.58;76.31;101446.97;5047163;28;19929;-53
2021/10/01 10:00:07;;;;;;;;;;;;;;;14.63;77.73;101450.16;5049189;28;20307;-52
2021/10/01 10:02:37;;;;;;;;;;;;;;;14.81;75.77;101447.97;5051076;28;19975;-54
2021/10/01 10:05:04;;;;;;;;;;;;;;;14.80;76.37;101445.44;5049957;28;19928;-54
2021/10/01 10:07:36;;;;;;;;;;;;;;;14.86;76.11;101442.31;5051993;28;19925;-53
2021/10/01 10:10:04;;;;;;;;;;;;;;;15.02;74.99;101444.69;5050772;28;19929;-56
2021/10/01 10:12:36;;;;;;;;;;;;;;;15.27;76.19;101437.53;5047006;28;19925;-55
2021/10/01 10:15:04;;;;;;;;;;;;;;;15.63;73.48;101433.06;5052013;28;19925;-53
2021/10/01 10:17:31;;;;;;;;;;;;;;;16.00;73.27;101424.91;5053043;28;19925;-55
2021/10/01 10:19:59;;;;;;;;;;;;;;;16.08;72.73;101419.81;5052818;28;20391;-55
2021/10/01 10:22:26;;;;;;;;;;;;;;;16.09;69.90;101410.91;5052515;28;19929;-54
2021/10/01 10:24:53;;;;;;;;;;;;;;;16.05;70.01;101409.47;5049545;28;20015;-54
2021/10/01 10:27:21;;;;;;;;;;;;;;;15.92;67.97;101401.63;5048028;28;19932;-52
2021/10/01 10:29:48;;;;;;;;;;;;;;;16.06;69.13;101403.19;5052964;28;19966;-53
2021/10/01 10:32:18;;;;;;;;;;;;;;;16.08;69.74;101395.13;5049383;28;19925;-55
2021/10/01 10:34:50;;;;;;;;;;;;;;;16.36;67.35;101399.03;5049548;28;19929;-54
2021/10/01 10:37:17;;;;;;;;;;;;;;;16.76;64.79;101398.44;5048789;28;19983;-55
2021/10/01 10:39:44;;;;;;;;;;;;;;;16.81;65.26;101398.91;5052774;28;19975;-55
2021/10/01 10:42:12;;;;;;;;;;;;;;;16.84;63.99;101393.31;5050739;28;19928;-55
2021/10/01 10:45:02;;;;;;;;;;;;;;;16.72;64.93;101395.19;5048596;28;19995;-56
2021/10/01 10:47:40;;;;;;;;;;;;;;;16.79;63.48;101386.72;5048512;28;19928;-55
2021/10/01 10:50:24;;;;;;;;;;;;;;;16.91;64.70;101388.38;5049696;28;19931;-52
2021/10/01 10:55:40;;;;;;;;;;;;;;;16.83;63.74;101388.16;5048715;28;20019;-52
2021/10/01 10:58:25;;;;;;;;;;;;;;;16.92;64.03;101389.22;5049816;28;19940;-56
2021/10/01 11:01:03;;;;;;;;;;;;;;;16.91;63.92;101385.72;5049050;28;20027;-55
2021/10/01 11:03:34;;;;;;;;;;;;;;;17.17;62.80;101388.00;5049664;28;19925;-55
2021/10/01 11:06:10;;;;;;;;;;;;;;;17.21;61.92;101389.44;5049806;28;19925;-56
2021/10/01 11:08:37;;;;;;;;;;;;;;;17.41;62.17;101382.41;5048893;28;19932;-55
2021/10/01 11:11:04;;;;;;;;;;;;;;;17.61;62.04;101377.19;5046674;28;19932;-55
2021/10/01 11:13:32;;;;;;;;;;;;;;;17.68;60.89;101379.19;5030286;28;19994;-55
2021/10/01 11:16:08;;;;;;;;;;;;;;;17.60;59.46;101372.84;5048750;28;20358;-57
2021/10/01 11:21:26;;;;;;;;;;;;;;;17.42;62.72;101370.78;5052269;28;19952;-55
2021/10/01 11:24:12;;;;;;;;;;;;;;;17.36;61.27;101377.47;5053372;28;19995;-54
2021/10/01 11:26:47;;;;;;;;;;;;;;;17.28;61.95;101369.31;5052096;28;19970;-54
2021/10/01 11:29:20;;;;;;;;;;;;;;;17.27;61.98;101367.63;5054022;28;19928;-53
2021/10/01 11:31:47;;;;;;;;;;;;;;;17.58;64.16;101362.34;5053146;28;20446;-55
2021/10/01 11:34:14;;;;;;;;;;;;;;;17.70;63.92;101361.25;5052426;28;20279;-53
2021/10/01 11:36:40;;;;;;;;;;;;;;;17.82;62.83;101353.19;5051167;28;19951;-55
2021/10/01 11:39:14;;;;;;;;;;;;;;;18.07;62.81;101343.91;5051311;28;19960;-52
2021/10/01 11:41:41;;;;;;;;;;;;;;;18.17;61.79;101338.59;5051486;28;19986;-54
2021/10/01 11:44:13;;;;;;;;;;;;;;;18.54;60.70;101338.78;5037050;28;20376;-53
2021/10/01 11:46:47;;;;;;;;;;;;;;;18.45;59.52;101342.28;5052731;28;20268;-55
2021/10/01 11:49:16;;;;;;;;;;;;;;;18.48;60.31;101333.16;5052364;28;19964;-54
2021/10/01 11:51:56;;;;;;;;;;;;;;;18.44;59.97;101332.59;5052826;28;19936;-55
2021/10/01 11:54:23;;;;;;;;;;;;;;;18.35;60.63;101344.06;5052242;28;19936;-53
2021/10/01 11:56:57;;;;;;;;;;;;;;;18.18;60.06;101334.97;5051486;28;19925;-56
2021/10/01 11:59:25;;;;;;;;;;;;;;;18.19;58.93;101326.00;5051781;28;19928;-54
2021/10/01 12:01:56;;;;;;;;;;;;;;;18.13;61.00;101326.53;5055853;28;19925;-53
2021/10/01 12:04:30;;;;;;;;;;;;;;;18.11;60.65;101328.53;5055786;28;20019;-54
2021/10/01 12:07:04;;;;;;;;;;;;;;;18.15;61.91;101316.63;5055529;28;19931;-55
2021/10/01 12:09:31;;;;;;;;;;;;;;;18.12;62.13;101317.72;5055798;28;19924;-55
2021/10/01 12:12:04;;;;;;;;;;;;;;;18.07;58.79;101307.47;5053185;28;19979;-51
2021/10/01 12:14:30;;;;;;;;;;;;;;;17.95;59.81;101297.94;5051852;28;19924;-50
2021/10/01 12:17:01;;;;;;;;;;;;;;;17.87;60.18;101295.94;5052014;28;19935;-52
2021/10/01 12:19:28;;;;;;;;;;;;;;;17.83;59.89;101299.00;5052286;28;19925;-50
2021/10/01 12:22:05;;;;;;;;;;;;;;;17.96;59.54;101296.97;5052120;28;19994;-45
2021/10/01 12:24:42;;;;;;;;;;;;;;;17.80;58.81;101300.13;5051088;28;19978;-44
2021/10/01 12:27:09;;;;;;;;;;;;;;;17.85;59.46;101303.22;5051885;28;19947;-49
2021/10/01 12:29:43;;;;;;;;;;;;;;;17.83;58.10;101309.66;5049052;28;19926;-45
2021/10/01 12:32:09;;;;;;;;;;;;;;;17.86;58.73;101298.72;5037908;28;19929;-49
2021/10/01 12:34:41;;;;;;;;;;;;;;;17.73;57.17;101305.13;5030675;28;19933;-47
2021/10/01 12:37:17;;;;;;;;;;;;;;;17.82;56.71;101302.63;5046225;28;20400;-48
2021/10/01 12:39:44;;;;;;;;;;;;;;;17.83;58.61;101293.69;5049405;28;19925;-47
2021/10/01 12:42:14;;;;;;;;;;;;;;;17.95;58.47;101297.94;5035017;28;20231;-46
2021/10/01 12:44:41;;;;;;;;;;;;;;;18.11;59.70;101283.28;5049699;28;19932;-48
2021/10/01 12:47:15;;;;;;;;;;;;;;;18.31;56.99;101294.75;5046729;28;19979;-47
2021/10/01 12:49:42;;;;;;;;;;;;;;;18.36;56.51;101280.03;5033273;28;20331;-47
2021/10/01 12:52:11;;;;;;;;;;;;;;;18.44;55.75;101283.84;5047810;28;19929;-48
2021/10/01 12:54:40;;;;;;;;;;;;;;;18.36;55.08;101282.69;5031509;28;20381;-47
2021/10/01 12:57:11;;;;;;;;;;;;;;;18.25;55.87;101290.84;5029909;28;20360;-45
2021/10/01 12:59:37;;;;;;;;;;;;;;;18.20;53.67;101285.06;5032586;28;19929;-48
2021/10/01 13:02:05;;;;;;;;;;;;;;;18.32;57.11;101278.63;5046401;28;19929;-49
2021/10/01 13:04:42;;;;;;;;;;;;;;;18.20;60.59;101279.75;5031837;28;19932;-49
2021/10/01 13:07:28;;;;;;;;;;;;;;;17.97;61.90;101285.34;5030894;28;19929;-50
2021/10/01 13:09:55;;;;;;;;;;;;;;;17.92;60.78;101284.91;5031426;28;19975;-45
2021/10/01 13:12:27;;;;;;;;;;;;;;;17.80;62.21;101284.16;5028408;28;19929;-50
2021/10/01 13:15:27;;;;;;;;;;;;;;;18.08;62.62;101287.06;5032938;28;20392;-47
2021/10/01 13:17:59;;;;;;;;;;;;;;;18.16;59.65;101289.00;5029154;28;19936;-47
2021/10/01 13:20:27;;;;;;;;;;;;;;;18.18;57.77;101287.06;5030864;28;19933;-46
2021/10/01 13:23:10;;;;;;;;;;;;;;;18.01;56.88;101286.75;5030182;28;20054;-45
2021/10/01 13:25:38;;;;;;;;;;;;;;;18.10;57.95;101286.91;5030653;28;19925;-52
2021/10/01 13:28:05;;;;;;;;;;;;;;;18.01;60.21;101286.75;5047001;28;19979;-53
2021/10/01 13:30:32;;;;;;;;;;;;;;;18.02;59.57;101282.28;5046166;28;19928;-55
2021/10/01 13:32:58;;;;;;;;;;;;;;;18.01;57.68;101278.78;5045767;28;19929;-55
2021/10/01 13:35:25;;;;;;;;;;;;;;;18.00;58.23;101282.41;5030802;28;20935;-53
2021/10/01 13:37:52;;;;;;;;;;;;;;;17.93;57.74;101285.75;5045862;28;19929;-53
2021/10/01 13:40:19;;;;;;;;;;;;;;;18.02;56.86;101274.28;5045572;28;19926;-53
2021/10/01 13:42:45;;;;;;;;;;;;;;;17.87;57.84;101279.13;5048566;28;19984;-53
2021/10/01 13:45:12;;;;;;;;;;;;;;;17.85;58.92;101275.78;5048765;28;19932;-53
2021/10/01 13:47:39;;;;;;;;;;;;;;;17.91;58.49;101272.56;5033068;28;19932;-53
2021/10/01 13:50:07;;;;;;;;;;;;;;;17.91;58.61;101269.91;5049041;28;19929;-54
2021/10/01 13:52:33;;;;;;;;;;;;;;;17.98;59.42;101275.53;5031383;28;19972;-51
2021/10/01 13:55:00;;;;;;;;;;;;;;;17.82;58.22;101276.03;5029247;28;19925;-47
2021/10/01 13:57:28;;;;;;;;;;;;;;;17.72;58.94;101265.38;5027911;28;19925;-46
2021/10/01 13:59:55;;;;;;;;;;;;;;;17.83;58.42;101256.44;5030544;28;19991;-54
2021/10/01 14:02:22;;;;;;;;;;;;;;;17.95;60.17;101266.00;5029964;28;19951;-53
2021/10/01 14:04:48;;;;;;;;;;;;;;;17.95;57.71;101255.38;5028658;28;19968;-54
2021/10/01 14:07:15;;;;;;;;;;;;;;;17.96;59.20;101249.06;5043285;28;20020;-54
2021/10/01 14:09:42;;;;;;;;;;;;;;;18.04;59.12;101249.22;5028041;28;19925;-53
2021/10/01 14:12:24;;;;;;;;;;;;;;;17.98;59.08;101248.94;5027516;28;19955;-48
2021/10/01 14:14:50;;;;;;;;;;;;;;;17.99;57.48;101247.97;5028989;28;19929;-45
2021/10/01 14:17:17;;;;;;;;;;;;;;;17.87;57.63;101240.09;5031208;28;19925;-47
2021/10/01 14:19:44;;;;;;;;;;;;;;;17.86;57.61;101240.19;5031716;28;19979;-46
2021/10/01 14:22:11;;;;;;;;;;;;;;;17.76;57.43;101237.53;5031713;28;19925;-46
2021/10/01 14:24:43;;;;;;;;;;;;;;;17.78;58.15;101237.38;5031601;28;20458;-48
2021/10/01 14:27:24;;;;;;;;;;;;;;;17.80;57.37;101238.09;5030929;28;19933;-49